createdAt,value
2019-04-25T00:01:43.357Z,83.66
2019-04-25T00:04:12.825Z,83.60
2019-04-25T00:06:42.858Z,83.89
2019-04-25T00:09:13.869Z,84.05
2019-04-25T00:11:43.679Z,84.58
2019-04-25T00:14:13.335Z,84.10
2019-04-25T00:16:44.170Z,84.62
2019-04-25T00:19:12.976Z,84.29
2019-04-25T00:21:49.221Z,84.05
2019-04-25T00:24:19.423Z,84.37
2019-04-25T00:26:49.637Z,84.33
2019-04-25T00:29:18.401Z,84.68
2019-04-25T00:31:47.263Z,84.80
2019-04-25T00:34:16.000Z,84.72
2019-04-25T00:36:45.620Z,84.59
2019-04-25T00:39:14.302Z,84.53
2019-04-25T00:41:45.031Z,84.67
2019-04-25T00:44:13.150Z,84.68
2019-04-25T00:46:44.837Z,84.76
2019-04-25T00:49:12.285Z,84.85
2019-04-25T00:51:42.686Z,85.22
2019-04-25T00:54:11.909Z,85.13
2019-04-25T00:56:43.306Z,85.12
2019-04-25T00:59:13.954Z,85.53
2019-04-25T01:01:51.862Z,85.59
2019-04-25T01:04:22.311Z,85.70
2019-04-25T01:06:52.001Z,85.88
2019-04-25T01:09:22.234Z,86.00
2019-04-25T01:11:52.324Z,86.17
2019-04-25T01:14:21.876Z,86.75
2019-04-25T01:16:51.118Z,86.71
2019-04-25T01:19:20.904Z,86.94
2019-04-25T01:21:49.473Z,87.62
2019-04-25T01:24:18.355Z,88.21
2019-04-25T01:26:47.506Z,88.36
2019-04-25T01:29:16.321Z,88.57
2019-04-25T01:31:46.491Z,88.48
2019-04-25T01:34:16.862Z,88.63
2019-04-25T01:36:47.200Z,89.12
2019-04-25T01:39:20.516Z,88.98
2019-04-25T01:42:03.622Z,89.24
2019-04-25T01:44:34.805Z,89.64
2019-04-25T01:47:04.241Z,89.72
2019-04-25T01:49:33.988Z,89.92
2019-04-25T01:52:03.641Z,90.00
2019-04-25T01:54:33.842Z,89.80
2019-04-25T01:57:04.359Z,89.76
2019-04-25T01:59:33.811Z,89.76
2019-04-25T02:02:04.043Z,90.04
2019-04-25T02:04:34.144Z,90.08
2019-04-25T02:07:03.643Z,89.79
2019-04-25T02:09:33.685Z,89.67
2019-04-25T02:12:23.555Z,89.56
2019-04-25T02:14:54.647Z,89.43
2019-04-25T02:17:24.128Z,89.42
2019-04-25T02:19:54.591Z,89.50
2019-04-25T02:22:24.347Z,89.63
2019-04-25T02:24:54.989Z,89.55
2019-04-25T02:27:24.216Z,89.56
2019-04-25T02:29:55.188Z,89.60
2019-04-25T02:32:24.624Z,89.69
2019-04-25T02:34:58.051Z,89.57
2019-04-25T02:37:25.606Z,89.28
2019-04-25T02:39:57.938Z,89.42
2019-04-25T02:42:24.787Z,89.39
2019-04-25T02:45:00.605Z,89.47
2019-04-25T02:47:39.143Z,89.73
2019-04-25T02:50:14.907Z,89.72
2019-04-25T02:52:44.537Z,89.89
2019-04-25T02:55:29.479Z,90.04
2019-04-25T02:57:44.848Z,89.99
2019-04-25T03:00:26.150Z,89.81
2019-04-25T03:02:54.845Z,90.07
2019-04-25T03:05:25.548Z,90.07
2019-04-25T03:07:54.542Z,90.19
2019-04-25T03:10:26.673Z,90.26
2019-04-25T03:12:54.493Z,90.40
2019-04-25T03:15:24.321Z,90.35
2019-04-25T03:17:54.661Z,90.44
2019-04-25T03:20:25.056Z,90.34
2019-04-25T03:22:54.749Z,90.40
2019-04-25T03:25:24.780Z,90.66
2019-04-25T03:27:54.095Z,90.65
2019-04-25T03:30:25.350Z,90.53
2019-04-25T03:32:55.984Z,90.77
2019-04-25T03:35:23.472Z,90.82
2019-04-25T03:37:52.054Z,90.72
2019-04-25T03:40:20.608Z,90.78
2019-04-25T03:42:49.198Z,90.85
2019-04-25T03:45:17.773Z,90.71
2019-04-25T03:47:46.277Z,90.84
2019-04-25T03:50:14.975Z,90.69
2019-04-25T03:52:43.721Z,90.64
2019-04-25T03:55:12.454Z,90.57
2019-04-25T03:57:41.088Z,90.50
2019-04-25T04:00:10.712Z,90.65
2019-04-25T04:02:39.441Z,90.47
2019-04-25T04:05:08.380Z,90.38
2019-04-25T04:07:37.948Z,90.34
2019-04-25T04:10:07.986Z,90.04
2019-04-25T04:12:36.595Z,89.81
2019-04-25T04:15:07.008Z,89.73
2019-04-25T04:17:40.299Z,89.87
2019-04-25T04:20:11.297Z,89.54
2019-04-25T04:22:57.909Z,89.68
2019-04-25T04:25:26.744Z,89.67
2019-04-25T04:27:55.300Z,89.59
2019-04-25T04:30:24.190Z,89.34
2019-04-25T04:32:53.653Z,89.10
2019-04-25T04:35:23.532Z,88.97
2019-04-25T04:37:52.199Z,88.69
2019-04-25T04:40:20.760Z,88.67
2019-04-25T04:42:49.308Z,88.26
2019-04-25T04:45:18.271Z,87.79
2019-04-25T04:47:47.045Z,87.23
2019-04-25T04:50:16.546Z,86.70
2019-04-25T04:52:45.042Z,86.48
2019-04-25T04:55:16.960Z,85.78
2019-04-25T04:57:44.891Z,85.06
2019-04-25T05:00:15.570Z,83.74
2019-04-25T05:02:55.066Z,82.69
2019-04-25T05:05:25.304Z,82.49
2019-04-25T05:07:55.504Z,81.33
2019-04-25T05:10:24.643Z,81.28
2019-04-25T05:12:53.413Z,80.71
2019-04-25T05:15:24.528Z,80.05
2019-04-25T05:17:53.957Z,80.01
2019-04-25T05:20:24.159Z,79.45
2019-04-25T05:22:54.607Z,79.07
2019-04-25T05:25:24.584Z,78.58
2019-04-25T05:28:00.650Z,77.92
2019-04-25T05:30:26.592Z,77.06
2019-04-25T05:32:55.298Z,76.93
2019-04-25T05:35:24.370Z,75.78
2019-04-25T05:37:53.913Z,73.92
2019-04-25T05:40:24.141Z,71.18
2019-04-25T05:43:03.350Z,69.16
2019-04-25T05:45:34.022Z,67.29
2019-04-25T05:48:05.738Z,66.84
2019-04-25T05:50:33.882Z,67.40
2019-04-25T05:53:04.176Z,66.44
2019-04-25T05:55:34.119Z,66.78
2019-04-25T05:58:03.850Z,66.24
2019-04-25T06:00:34.038Z,65.78
2019-04-25T06:03:03.608Z,66.33
2019-04-25T06:05:33.569Z,66.17
2019-04-25T06:08:04.111Z,65.41
2019-04-25T06:10:37.409Z,63.81
2019-04-25T06:13:13.898Z,62.25
2019-04-25T06:15:44.288Z,60.23
2019-04-25T06:18:14.824Z,58.76
2019-04-25T06:20:44.272Z,57.40
2019-04-25T06:23:20.565Z,56.97
2019-04-25T06:25:49.166Z,56.16
2019-04-25T06:28:26.189Z,55.38
2019-04-25T06:30:54.935Z,54.70
2019-04-25T06:33:24.672Z,53.66
2019-04-25T06:35:55.039Z,53.25
2019-04-25T06:38:26.885Z,51.08
2019-04-25T06:40:54.518Z,51.57
2019-04-25T06:43:24.549Z,50.95
2019-04-25T06:45:55.478Z,51.04
2019-04-25T06:48:33.237Z,48.69
2019-04-25T06:51:03.531Z,50.08
2019-04-25T06:53:34.245Z,49.40
2019-04-25T06:56:03.521Z,49.42
2019-04-25T06:58:33.834Z,48.68
2019-04-25T07:01:03.426Z,49.63
2019-04-25T07:03:32.024Z,50.05
2019-04-25T07:06:00.586Z,50.04
2019-04-25T07:08:29.187Z,49.58
2019-04-25T07:10:57.714Z,50.04
2019-04-25T07:13:27.031Z,50.74
2019-04-25T07:15:55.748Z,51.48
2019-04-25T07:18:27.675Z,51.46
2019-04-25T07:20:54.607Z,51.32
2019-04-25T07:23:23.631Z,51.88
2019-04-25T07:25:54.958Z,51.74
2019-04-25T07:28:32.173Z,51.35
2019-04-25T07:31:19.217Z,52.05
2019-04-25T07:33:49.414Z,52.03
2019-04-25T07:36:18.002Z,51.82
2019-04-25T07:38:46.570Z,52.25
2019-04-25T07:41:16.352Z,52.88
2019-04-25T07:43:45.168Z,52.90
2019-04-25T07:46:13.857Z,53.66
2019-04-25T07:48:43.824Z,53.68
2019-04-25T07:51:15.894Z,52.96
2019-04-25T07:53:43.685Z,52.06
2019-04-25T07:56:14.111Z,51.15
2019-04-25T07:58:50.560Z,51.09
2019-04-25T08:01:15.142Z,51.03
2019-04-25T08:03:44.074Z,51.42
2019-04-25T08:06:13.778Z,51.56
2019-04-25T08:08:43.607Z,51.25
2019-04-25T08:11:14.073Z,51.99
2019-04-25T08:13:44.442Z,51.90
2019-04-25T08:16:20.862Z,50.90
2019-04-25T08:18:50.830Z,51.20
2019-04-25T08:21:19.589Z,51.34
2019-04-25T08:23:49.733Z,51.05
2019-04-25T08:26:18.301Z,51.28
2019-04-25T08:28:54.920Z,50.74
2019-04-25T08:31:17.296Z,50.43
2019-04-25T08:33:46.556Z,49.69
2019-04-25T08:36:15.307Z,48.72
2019-04-25T08:38:44.773Z,47.47
2019-04-25T08:41:14.052Z,47.27
2019-04-25T08:43:43.682Z,46.28
2019-04-25T08:46:13.942Z,45.00
2019-04-25T08:49:02.155Z,45.13
2019-04-25T08:51:34.757Z,45.14
2019-04-25T08:54:04.141Z,44.62
2019-04-25T08:56:35.529Z,44.39
2019-04-25T08:59:34.192Z,44.04
2019-04-25T09:01:55.146Z,44.25
2019-04-25T09:04:28.605Z,45.12
2019-04-25T09:06:57.382Z,45.88
2019-04-25T09:09:26.047Z,46.86
2019-04-25T09:11:54.639Z,46.88
2019-04-25T09:14:24.570Z,47.43
2019-04-25T09:16:53.414Z,48.12
2019-04-25T09:19:22.071Z,48.23
2019-04-25T09:21:50.596Z,48.64
2019-04-25T09:24:19.172Z,48.58
2019-04-25T09:26:47.737Z,48.63
2019-04-25T09:29:19.600Z,49.41
2019-04-25T09:31:46.648Z,49.47
2019-04-25T09:34:15.275Z,48.16
2019-04-25T09:36:46.805Z,47.52
2019-04-25T09:39:19.957Z,47.28
2019-04-25T09:41:48.546Z,46.55
2019-04-25T09:44:18.749Z,44.66
2019-04-25T09:46:47.766Z,45.95
2019-04-25T09:49:33.859Z,46.01
2019-04-25T09:52:12.923Z,45.79
2019-04-25T09:54:46.346Z,46.08
2019-04-25T09:57:33.278Z,46.80
2019-04-25T10:00:03.663Z,47.15
2019-04-25T10:02:32.406Z,47.97
2019-04-25T10:05:01.057Z,48.40
2019-04-25T10:07:29.618Z,48.42
2019-04-25T10:09:58.192Z,48.95
2019-04-25T10:12:26.819Z,49.18
2019-04-25T10:15:04.606Z,48.97
2019-04-25T10:17:33.823Z,49.79
2019-04-25T10:20:02.424Z,49.53
2019-04-25T10:22:31.084Z,49.49
2019-04-25T10:25:00.809Z,49.64
2019-04-25T10:27:29.556Z,48.69
2019-04-25T10:29:58.118Z,48.88
2019-04-25T10:32:26.687Z,48.67
2019-04-25T10:34:55.474Z,47.70
2019-04-25T10:37:24.067Z,46.87
2019-04-25T10:39:55.234Z,46.64
2019-04-25T10:42:23.893Z,45.91
2019-04-25T10:44:54.482Z,44.33
2019-04-25T10:47:22.956Z,43.75
2019-04-25T10:49:53.428Z,43.72
2019-04-25T10:52:23.370Z,43.78
2019-04-25T10:54:54.130Z,42.88
2019-04-25T10:57:24.950Z,42.37
2019-04-25T11:00:05.106Z,42.67
2019-04-25T11:02:23.672Z,41.84
2019-04-25T11:04:54.557Z,42.96
2019-04-25T11:07:23.525Z,42.16
2019-04-25T11:09:53.380Z,42.65
2019-04-25T11:12:23.481Z,42.90
2019-04-25T11:14:53.296Z,43.88
2019-04-25T11:17:24.242Z,42.16
2019-04-25T11:19:54.253Z,41.43
2019-04-25T11:22:23.994Z,40.32
2019-04-25T11:24:53.027Z,40.07
2019-04-25T11:27:21.785Z,39.71
2019-04-25T11:29:50.757Z,39.97
2019-04-25T11:32:21.123Z,40.03
2019-04-25T11:34:50.693Z,39.99
2019-04-25T11:37:20.984Z,39.37
2019-04-25T11:40:00.044Z,38.91
2019-04-25T11:42:28.789Z,38.78
2019-04-25T11:44:57.420Z,38.71
2019-04-25T11:47:26.092Z,38.62
2019-04-25T11:49:55.800Z,39.47
2019-04-25T11:52:28.286Z,39.45
2019-04-25T11:54:55.707Z,40.22
2019-04-25T11:57:24.532Z,40.72
2019-04-25T11:59:54.637Z,41.08
2019-04-25T12:02:24.003Z,41.72
2019-04-25T12:04:54.925Z,41.86
2019-04-25T12:07:23.678Z,42.41
2019-04-25T12:09:54.113Z,41.55
2019-04-25T12:12:23.608Z,41.22
2019-04-25T12:14:54.043Z,40.90
2019-04-25T12:17:23.431Z,40.57
2019-04-25T12:19:54.663Z,40.46
2019-04-25T12:22:23.801Z,39.91
2019-04-25T12:24:54.328Z,39.80
2019-04-25T12:27:22.811Z,39.21
2019-04-25T12:29:52.352Z,39.26
2019-04-25T12:32:21.335Z,38.42
2019-04-25T12:34:49.906Z,39.03
2019-04-25T12:37:18.878Z,38.93
2019-04-25T12:39:48.399Z,38.08
2019-04-25T12:42:17.093Z,37.46
2019-04-25T12:44:59.130Z,37.42
2019-04-25T12:47:34.252Z,36.77
2019-04-25T12:50:04.067Z,38.13
2019-04-25T12:52:33.345Z,36.95
2019-04-25T12:55:03.940Z,36.56
2019-04-25T12:57:32.274Z,36.98
2019-04-25T13:00:00.691Z,36.31
2019-04-25T13:02:29.293Z,36.24
2019-04-25T13:04:57.857Z,36.16
2019-04-25T13:07:26.414Z,36.25
2019-04-25T13:09:55.409Z,36.43
2019-04-25T13:12:24.291Z,36.71
2019-04-25T13:14:52.873Z,36.73
2019-04-25T13:17:21.758Z,37.16
2019-04-25T13:19:50.401Z,36.17
2019-04-25T13:22:19.335Z,35.91
2019-04-25T13:24:48.058Z,35.49
2019-04-25T13:27:34.315Z,34.87
2019-04-25T13:30:10.782Z,34.59
2019-04-25T13:32:43.645Z,35.98
2019-04-25T13:35:30.333Z,34.51
2019-04-25T13:37:59.339Z,34.37
2019-04-25T13:40:28.014Z,34.81
2019-04-25T13:42:56.573Z,34.82
2019-04-25T13:45:25.221Z,35.43
2019-04-25T13:47:54.157Z,35.51
2019-04-25T13:50:24.006Z,35.75
2019-04-25T13:52:53.420Z,36.10
2019-04-25T13:55:23.700Z,36.94
2019-04-25T13:57:53.379Z,37.45
2019-04-25T14:00:24.798Z,37.40
2019-04-25T14:02:54.571Z,36.64
2019-04-25T14:05:24.862Z,36.46
2019-04-25T14:07:54.433Z,36.98
2019-04-25T14:10:25.039Z,37.13
2019-04-25T14:12:53.717Z,37.00
2019-04-25T14:15:25.243Z,36.73
2019-04-25T14:17:58.455Z,37.05
2019-04-25T14:20:37.874Z,36.82
2019-04-25T14:23:07.615Z,36.28
2019-04-25T14:25:36.676Z,37.45
2019-04-25T14:28:05.911Z,37.04
2019-04-25T14:30:35.960Z,36.41
2019-04-25T14:33:04.722Z,36.07
2019-04-25T14:35:33.668Z,35.96
2019-04-25T14:38:03.862Z,36.19
2019-04-25T14:40:33.229Z,36.17
2019-04-25T14:43:01.928Z,36.26
2019-04-25T14:45:41.717Z,36.49
2019-04-25T14:48:00.831Z,36.13
2019-04-25T14:50:29.952Z,36.81
2019-04-25T14:52:58.719Z,36.19
2019-04-25T14:55:44.965Z,36.31
2019-04-25T14:58:15.174Z,36.28
2019-04-25T15:00:46.978Z,35.99
2019-04-25T15:03:15.619Z,36.68
2019-04-25T15:05:44.184Z,36.95
2019-04-25T15:08:12.754Z,37.59
2019-04-25T15:10:41.326Z,37.01
2019-04-25T15:13:11.468Z,37.46
2019-04-25T15:15:40.097Z,38.00
2019-04-25T15:18:08.725Z,37.90
2019-04-25T15:20:37.326Z,37.96
2019-04-25T15:23:05.982Z,38.28
2019-04-25T15:25:35.572Z,38.66
2019-04-25T15:28:04.279Z,38.27
2019-04-25T15:30:34.451Z,38.72
2019-04-25T15:33:03.453Z,38.54
2019-04-25T15:35:48.986Z,38.98
2019-04-25T15:38:35.624Z,39.04
2019-04-25T15:41:06.050Z,38.75
2019-04-25T15:43:36.305Z,40.59
2019-04-25T15:46:09.523Z,39.84
2019-04-25T15:48:38.371Z,40.12
2019-04-25T15:51:06.929Z,39.83
2019-04-25T15:53:35.502Z,39.88
2019-04-25T15:56:04.199Z,40.43
2019-04-25T15:58:32.778Z,40.17
2019-04-25T16:01:01.527Z,40.65
2019-04-25T16:03:30.811Z,42.02
2019-04-25T16:05:59.455Z,42.60
2019-04-25T16:08:28.806Z,43.41
2019-04-25T16:10:57.672Z,43.40
2019-04-25T16:13:27.012Z,44.87
2019-04-25T16:15:56.185Z,44.80
2019-04-25T16:18:24.753Z,44.95
2019-04-25T16:20:53.353Z,45.70
2019-04-25T16:23:21.925Z,46.39
2019-04-25T16:25:50.449Z,47.00
2019-04-25T16:28:19.045Z,47.00
2019-04-25T16:30:47.844Z,47.61
2019-04-25T16:33:16.428Z,47.59
2019-04-25T16:35:44.991Z,47.96
2019-04-25T16:38:14.054Z,48.00
2019-04-25T16:40:42.617Z,48.56
2019-04-25T16:43:12.852Z,48.24
2019-04-25T16:45:41.469Z,48.66
2019-04-25T16:48:10.003Z,47.78
2019-04-25T16:50:38.681Z,47.18
2019-04-25T16:53:07.217Z,48.07
2019-04-25T16:55:36.630Z,48.69
2019-04-25T16:58:05.423Z,47.81
2019-04-25T17:00:50.735Z,47.73
2019-04-25T17:03:20.977Z,48.57
2019-04-25T17:05:49.617Z,48.84
2019-04-25T17:08:18.491Z,49.04
2019-04-25T17:10:47.141Z,49.58
2019-04-25T17:13:16.029Z,50.20
2019-04-25T17:16:02.468Z,50.37
2019-04-25T17:18:38.694Z,51.32
2019-04-25T17:21:11.806Z,50.68
2019-04-25T17:23:40.495Z,50.90
2019-04-25T17:26:09.550Z,51.12
2019-04-25T17:28:39.747Z,51.48
2019-04-25T17:31:16.286Z,51.91
2019-04-25T17:33:46.443Z,51.99
2019-04-25T17:36:25.512Z,52.17
2019-04-25T17:38:55.815Z,52.85
2019-04-25T17:41:24.394Z,53.73
2019-04-25T17:43:52.990Z,53.94
2019-04-25T17:46:23.325Z,54.33
2019-04-25T17:48:51.946Z,54.91
2019-04-25T17:51:20.684Z,55.71
2019-04-25T17:53:49.419Z,56.06
2019-04-25T17:56:18.159Z,56.39
2019-04-25T17:58:46.820Z,56.58
2019-04-25T18:01:17.229Z,57.30
2019-04-25T18:03:45.796Z,57.12
2019-04-25T18:06:14.442Z,57.69
2019-04-25T18:08:44.076Z,58.13
2019-04-25T18:11:12.707Z,58.01
2019-04-25T18:13:41.271Z,58.29
2019-04-25T18:16:11.476Z,58.49
2019-04-25T18:18:44.436Z,58.57
2019-04-25T18:21:13.583Z,59.02
2019-04-25T18:23:55.808Z,59.27
2019-04-25T18:26:32.070Z,59.53
2019-04-25T18:29:08.192Z,59.79
2019-04-25T18:31:36.831Z,59.87
2019-04-25T18:34:07.270Z,60.12
2019-04-25T18:36:37.539Z,60.54
2019-04-25T18:39:14.717Z,60.67
2019-04-25T18:41:48.123Z,61.00
2019-04-25T18:44:16.887Z,61.27
2019-04-25T18:46:47.351Z,61.73
2019-04-25T18:49:16.002Z,61.91
2019-04-25T18:51:54.944Z,62.46
2019-04-25T18:54:25.765Z,61.86
2019-04-25T18:57:02.041Z,61.81
2019-04-25T18:59:42.147Z,61.57
2019-04-25T19:02:31.673Z,61.11
2019-04-25T19:05:18.161Z,60.51
2019-04-25T19:07:47.771Z,59.98
2019-04-25T19:10:17.107Z,59.71
2019-04-25T19:12:47.264Z,59.76
2019-04-25T19:15:17.256Z,59.76
2019-04-25T19:17:47.751Z,59.58
2019-04-25T19:20:23.316Z,59.58
2019-04-25T19:22:54.058Z,59.75
2019-04-25T19:25:24.725Z,59.75
2019-04-25T19:27:55.002Z,59.75
2019-04-25T19:30:25.356Z,59.97
2019-04-25T19:32:55.905Z,60.24
2019-04-25T19:35:26.279Z,60.67
2019-04-25T19:37:57.438Z,61.04
2019-04-25T19:41:21.014Z,61.53
2019-04-25T19:44:01.887Z,62.39
2019-04-25T19:46:32.359Z,63.24
2019-04-25T19:49:02.942Z,64.25
2019-04-25T19:51:32.113Z,64.09
2019-04-25T19:54:00.861Z,64.08
2019-04-25T19:56:30.798Z,64.23
2019-04-25T19:59:00.298Z,64.50
2019-04-25T20:01:29.851Z,64.59
2019-04-25T20:04:16.435Z,65.19
2019-04-25T20:07:03.879Z,65.36
2019-04-25T20:09:34.352Z,65.86
2019-04-25T20:12:04.134Z,66.42
2019-04-25T20:14:33.272Z,66.68
2019-04-25T20:17:02.803Z,67.28
2019-04-25T20:19:31.842Z,67.58
2019-04-25T20:22:00.611Z,68.26
2019-04-25T20:24:30.631Z,68.82
2019-04-25T20:27:00.098Z,69.24
2019-04-25T20:29:29.483Z,69.80
2019-04-25T20:31:58.364Z,70.39
2019-04-25T20:34:27.254Z,71.03
2019-04-25T20:36:56.144Z,71.27
2019-04-25T20:39:27.649Z,71.71
2019-04-25T20:41:55.984Z,72.07
2019-04-25T20:44:24.641Z,72.69
2019-04-25T20:46:54.817Z,73.18
2019-04-25T20:49:24.838Z,73.41
2019-04-25T20:51:54.691Z,73.95
2019-04-25T20:54:24.066Z,74.50
2019-04-25T20:56:53.437Z,75.27
2019-04-25T20:59:23.071Z,75.65
2019-04-25T21:01:53.551Z,75.90
2019-04-25T21:04:42.933Z,76.33
2019-04-25T21:07:13.013Z,76.58
2019-04-25T21:09:43.322Z,76.87
2019-04-25T21:12:12.980Z,77.32
2019-04-25T21:14:50.688Z,77.66
2019-04-25T21:17:27.541Z,77.99
2019-04-25T21:20:01.253Z,78.40
2019-04-25T21:22:30.008Z,78.94
2019-04-25T21:24:59.372Z,79.23
2019-04-25T21:27:28.158Z,79.44
2019-04-25T21:29:57.821Z,79.91
2019-04-25T21:32:26.725Z,80.09
2019-04-25T21:34:55.915Z,80.02
2019-04-25T21:37:26.424Z,80.19
2019-04-25T21:39:56.915Z,80.10
2019-04-25T21:42:28.679Z,80.17
2019-04-25T21:44:58.251Z,80.36
2019-04-25T21:47:27.209Z,80.43
2019-04-25T21:49:56.561Z,80.79
2019-04-25T21:52:25.560Z,80.79
2019-04-25T21:54:55.577Z,80.92
2019-04-25T21:57:24.518Z,81.26
2019-04-25T22:00:03.155Z,81.26
2019-04-25T22:02:24.028Z,81.35
2019-04-25T22:04:52.957Z,81.25
2019-04-25T22:07:22.861Z,81.16
2019-04-25T22:09:51.955Z,81.10
2019-04-25T22:12:20.898Z,80.79
2019-04-25T22:14:49.474Z,80.66
2019-04-25T22:17:18.257Z,80.68
2019-04-25T22:19:47.099Z,80.77
2019-04-25T22:22:16.008Z,81.09
2019-04-25T22:24:44.952Z,81.41
2019-04-25T22:27:15.156Z,81.61
2019-04-25T22:29:45.383Z,81.51
2019-04-25T22:32:21.381Z,81.68
2019-04-25T22:34:52.823Z,81.88
2019-04-25T22:37:21.354Z,81.82
2019-04-25T22:39:50.128Z,82.01
2019-04-25T22:42:18.758Z,82.23
2019-04-25T22:44:47.265Z,82.28
2019-04-25T22:47:17.587Z,82.47
2019-04-25T22:49:46.441Z,82.42
2019-04-25T22:52:15.287Z,82.67
2019-04-25T22:54:44.118Z,82.45
2019-04-25T22:57:13.018Z,82.58
2019-04-25T22:59:41.851Z,82.51
2019-04-25T23:02:12.061Z,82.34
2019-04-25T23:04:45.390Z,82.13
2019-04-25T23:07:14.439Z,81.98
2019-04-25T23:09:43.075Z,81.77
2019-04-25T23:12:12.686Z,81.57
2019-04-25T23:14:41.661Z,81.33
2019-04-25T23:17:10.259Z,81.30
2019-04-25T23:19:38.819Z,81.23
2019-04-25T23:22:07.483Z,81.04
2019-04-25T23:24:37.680Z,80.91
2019-04-25T23:27:12.163Z,80.80
2019-04-25T23:29:40.832Z,80.82
2019-04-25T23:32:10.392Z,80.75
2019-04-25T23:34:39.121Z,80.84
2019-04-25T23:37:07.685Z,80.90
2019-04-25T23:39:37.290Z,80.78
2019-04-25T23:42:06.070Z,80.76
2019-04-25T23:44:35.798Z,80.87
2019-04-25T23:47:04.433Z,80.80
2019-04-25T23:49:33.003Z,80.83
2019-04-25T23:52:01.871Z,80.86
2019-04-25T23:54:30.455Z,80.86
2019-04-25T23:56:59.293Z,81.13
2019-04-25T23:59:27.990Z,81.03
